Time;durP1;ratioP1;P1;durP2;ratioP2;P2;SDS_P1;SDS_P2;PMS_P1;PMS_P2;Temp;Humidity;BMP_temperature;BMP_pressure;BME280_temperature;BME280_humidity;BME280_pressure;Samples;Min_cycle;Max_cycle;Signal;HPM_P1;HPM_P2
2023/10/21 00:01:17;;;;;;;10.47;9.50;;;;;;;10.03;100.00;97671.72;5038772;28;20198;-84
2023/10/21 00:03:44;;;;;;;11.47;10.47;;;;;;;10.05;100.00;97673.31;5037528;28;20588;-84
2023/10/21 00:06:12;;;;;;;11.40;10.50;;;;;;;10.09;100.00;97674.81;5037535;28;20257;-83
2023/10/21 00:08:38;;;;;;;11.17;10.17;;;;;;;10.14;100.00;97687.56;5047203;28;20636;-83
2023/10/21 00:11:08;;;;;;;11.13;10.10;;;;;;;10.09;100.00;97677.41;5053761;28;20213;-83
2023/10/21 00:13:35;;;;;;;12.33;11.27;;;;;;;10.09;100.00;97685.25;5053219;28;20244;-80
2023/10/21 00:16:02;;;;;;;10.93;10.07;;;;;;;10.10;100.00;97679.06;5054315;28;20241;-83
2023/10/21 00:18:28;;;;;;;15.37;10.20;;;;;;;10.11;100.00;97690.38;5052471;28;20226;-80
2023/10/21 00:20:55;;;;;;;11.03;10.03;;;;;;;10.07;100.00;97689.72;5054257;28;20210;-81
2023/10/21 00:23:23;;;;;;;10.73;9.93;;;;;;;10.09;100.00;97702.66;5054262;28;20198;-83
2023/10/21 00:25:50;;;;;;;11.10;10.20;;;;;;;10.05;100.00;97717.63;5047220;28;20220;-82
2023/10/21 00:28:16;;;;;;;12.83;11.83;;;;;;;10.05;100.00;97709.81;5034593;28;20233;-81
2023/10/21 00:30:45;;;;;;;14.13;11.97;;;;;;;10.03;100.00;97716.88;5034987;28;20212;-83
2023/10/21 00:33:13;;;;;;;12.33;11.17;;;;;;;10.05;100.00;97711.56;5033766;28;20202;-80
2023/10/21 00:35:40;;;;;;;11.63;10.73;;;;;;;10.02;100.00;97725.63;5036187;28;20226;-82
2023/10/21 00:38:06;;;;;;;11.13;10.33;;;;;;;10.03;100.00;97740.34;5039101;28;20234;-82
2023/10/21 00:40:34;;;;;;;11.20;10.20;;;;;;;10.08;100.00;97760.91;5039654;28;20232;-83
2023/10/21 00:43:00;;;;;;;12.07;10.97;;;;;;;10.09;100.00;97770.41;5038890;28;20210;-82
2023/10/21 00:45:27;;;;;;;12.60;11.60;;;;;;;10.06;100.00;97781.00;5039085;28;20692;-83
2023/10/21 00:47:53;;;;;;;13.17;12.07;;;;;;;10.05;100.00;97789.75;5038723;28;20226;-81
2023/10/21 00:50:20;;;;;;;13.17;12.03;;;;;;;10.02;100.00;97779.53;5038653;28;20590;-82
2023/10/21 00:52:48;;;;;;;14.20;13.00;;;;;;;10.00;100.00;97791.81;5038775;28;20233;-83
2023/10/21 00:55:14;;;;;;;12.03;11.07;;;;;;;9.97;100.00;97800.66;5037799;28;20245;-83
2023/10/21 00:57:43;;;;;;;13.37;12.23;;;;;;;9.95;100.00;97799.91;5037281;28;20604;-83
2023/10/21 01:00:11;;;;;;;13.67;11.87;;;;;;;9.85;100.00;97803.94;5037654;28;20209;-82
2023/10/21 01:02:39;;;;;;;14.20;12.87;;;;;;;9.90;100.00;97799.31;5039224;28;20336;-83
2023/10/21 01:05:06;;;;;;;12.70;11.70;;;;;;;9.89;100.00;97803.69;5038201;28;20202;-83
2023/10/21 01:07:33;;;;;;;12.07;10.97;;;;;;;9.88;100.00;97799.41;5049035;28;20226;-82
2023/10/21 01:09:59;;;;;;;12.23;11.23;;;;;;;9.91;100.00;97808.81;5042477;28;20217;-82
2023/10/21 01:12:26;;;;;;;13.60;12.47;;;;;;;9.94;100.00;97814.69;5036950;28;20213;-82
2023/10/21 01:14:54;;;;;;;12.53;11.30;;;;;;;9.93;100.00;97813.00;5035811;28;20229;-81
2023/10/21 01:17:20;;;;;;;13.10;11.80;;;;;;;9.92;100.00;97821.75;5028451;28;20222;-80
2023/10/21 01:19:46;;;;;;;12.90;11.90;;;;;;;9.97;100.00;97825.84;5035939;28;20210;-80
2023/10/21 01:22:13;;;;;;;12.07;11.00;;;;;;;9.94;99.90;97838.13;5036560;28;20225;-80
2023/10/21 01:24:41;;;;;;;12.03;10.83;;;;;;;9.96;99.36;97852.84;5035852;28;20203;-81
2023/10/21 01:27:07;;;;;;;11.10;10.23;;;;;;;9.90;98.84;97864.47;5035772;28;20643;-83
2023/10/21 01:29:33;;;;;;;11.63;10.70;;;;;;;9.83;98.93;97868.34;5036496;28;20213;-81
2023/10/21 01:32:00;;;;;;;12.40;11.50;;;;;;;9.07;100.00;97817.88;5036083;28;20206;-83
2023/10/21 01:34:27;;;;;;;12.00;11.00;;;;;;;8.88;100.00;97752.16;5035216;28;20230;-82
2023/10/21 01:36:54;;;;;;;11.47;10.57;;;;;;;8.78;100.00;97712.00;5035247;28;20382;-81
2023/10/21 01:39:20;;;;;;;11.23;10.43;;;;;;;8.69;100.00;97677.78;5035730;28;20805;-80
2023/10/21 01:41:48;;;;;;;11.83;10.90;;;;;;;8.61;100.00;97659.16;5036617;28;20213;-82
2023/10/21 01:44:14;;;;;;;11.80;10.90;;;;;;;8.55;100.00;97641.31;5035957;28;20225;-83
2023/10/21 01:46:41;;;;;;;12.17;11.27;;;;;;;8.52;100.00;97638.88;5035729;28;20291;-81
2023/10/21 01:49:07;;;;;;;11.93;10.93;;;;;;;8.55;100.00;97625.72;5035896;28;20217;-81
2023/10/21 01:51:34;;;;;;;11.40;10.50;;;;;;;8.53;100.00;97624.97;5035478;28;20206;-83
2023/10/21 01:54:00;;;;;;;10.63;9.93;;;;;;;8.51;100.00;97619.00;5036016;28;20206;-80
2023/10/21 01:56:26;;;;;;;10.30;9.60;;;;;;;8.52;100.00;97611.13;5035959;28;20226;-84
2023/10/21 01:58:55;;;;;;;11.13;10.10;;;;;;;8.58;100.00;97616.91;5035245;28;20712;-83
2023/10/21 02:01:21;;;;;;;11.13;10.33;;;;;;;8.57;100.00;97612.63;5028638;28;20198;-82
2023/10/21 02:03:48;;;;;;;11.27;10.53;;;;;;;8.56;100.00;97614.38;5035916;28;20206;-83
2023/10/21 02:06:14;;;;;;;11.57;10.77;;;;;;;8.51;100.00;97609.44;5035394;28;20579;-82
2023/10/21 02:08:40;;;;;;;10.87;10.17;;;;;;;8.55;100.00;97615.31;5035023;28;20233;-80
2023/10/21 02:11:08;;;;;;;11.17;10.37;;;;;;;8.58;100.00;97612.53;5035461;28;20297;-83
2023/10/21 02:13:34;;;;;;;11.73;10.93;;;;;;;8.58;100.00;97614.28;5035033;28;20260;-82
2023/10/21 02:16:02;;;;;;;12.17;11.17;;;;;;;8.58;100.00;97630.72;5035142;28;20236;-82
2023/10/21 02:18:29;;;;;;;12.77;11.90;;;;;;;8.59;100.00;97629.81;5034638;28;20218;-82
2023/10/21 02:20:56;;;;;;;12.10;11.20;;;;;;;8.59;100.00;97629.81;5035003;28;20665;-82
2023/10/21 02:23:22;;;;;;;11.70;10.87;;;;;;;8.61;100.00;97630.56;5035148;28;20207;-80
2023/10/21 02:25:59;;;;;;;11.33;10.63;;;;;;;8.65;100.00;97636.44;5034883;28;20210;-83
2023/10/21 02:28:26;;;;;;;11.33;10.53;;;;;;;8.65;100.00;97633.84;5034776;28;20221;-82
2023/10/21 02:30:52;;;;;;;12.47;11.53;;;;;;;8.66;100.00;97640.69;5034940;28;20209;-83
2023/10/21 02:33:20;;;;;;;12.60;11.70;;;;;;;8.66;100.00;97638.09;5035030;28;20217;-80
2023/10/21 02:35:51;;;;;;;12.43;11.53;;;;;;;8.68;100.00;97644.06;5035301;28;20241;-83
2023/10/21 02:38:18;;;;;;;12.47;11.60;;;;;;;8.65;100.00;97646.84;5034655;28;20234;-81
2023/10/21 02:40:44;;;;;;;11.63;10.57;;;;;;;8.65;100.00;97639.88;5035484;28;20203;-81
2023/10/21 02:43:11;;;;;;;11.80;10.90;;;;;;;8.68;100.00;97636.25;5034591;28;20213;-82
2023/10/21 02:45:37;;;;;;;12.10;11.27;;;;;;;8.70;100.00;97631.78;5035191;28;20206;-82
2023/10/21 02:48:04;;;;;;;11.37;10.57;;;;;;;8.75;100.00;97624.59;5034527;28;20602;-82
2023/10/21 02:50:32;;;;;;;11.20;10.40;;;;;;;8.82;100.00;97618.13;5035100;28;20217;-83
2023/10/21 02:52:59;;;;;;;11.13;10.33;;;;;;;8.90;100.00;97615.91;5034329;28;20214;-82
2023/10/21 02:55:26;;;;;;;11.33;10.27;;;;;;;8.89;100.00;97609.03;5026640;28;20689;-80
2023/10/21 02:57:52;;;;;;;11.97;11.03;;;;;;;8.93;100.00;97599.28;5033484;28;20230;-81
2023/10/21 03:00:21;;;;;;;12.53;11.63;;;;;;;8.94;100.00;97609.59;5034467;28;20746;-83
2023/10/21 03:02:49;;;;;;;12.90;11.80;;;;;;;8.97;100.00;97602.53;5034598;28;20210;-82
2023/10/21 03:05:15;;;;;;;13.40;12.40;;;;;;;9.02;100.00;97597.91;5034083;28;20202;-82
2023/10/21 03:07:44;;;;;;;14.40;13.17;;;;;;;9.05;100.00;97595.97;5034250;28;20226;-82
2023/10/21 03:10:10;;;;;;;13.83;12.77;;;;;;;9.08;100.00;97601.00;5034577;28;20214;-83
2023/10/21 03:12:37;;;;;;;14.17;13.03;;;;;;;9.09;100.00;97592.25;5034807;28;20577;-83
2023/10/21 03:15:06;;;;;;;15.33;14.03;;;;;;;9.10;100.00;97595.72;5034015;28;20237;-83
2023/10/21 03:17:33;;;;;;;15.00;13.80;;;;;;;9.10;100.00;97606.94;5034176;28;20231;-82
2023/10/21 03:19:59;;;;;;;13.77;12.73;;;;;;;9.12;100.00;97604.25;5033819;28;20241;-82
2023/10/21 03:22:26;;;;;;;14.07;13.07;;;;;;;9.16;100.00;97608.34;5033843;28;20229;-82
2023/10/21 03:24:53;;;;;;;13.67;12.60;;;;;;;9.19;100.00;97608.16;5034308;28;20225;-83
2023/10/21 03:27:20;;;;;;;13.90;12.80;;;;;;;9.20;100.00;97619.44;5033833;28;20226;-83
2023/10/21 03:29:46;;;;;;;13.77;12.70;;;;;;;9.21;100.00;97618.47;5033255;28;20731;-82
2023/10/21 03:32:13;;;;;;;13.83;12.77;;;;;;;9.21;100.00;97618.47;5033995;28;20206;-83
2023/10/21 03:34:39;;;;;;;14.53;13.23;;;;;;;9.26;100.00;97624.28;5034182;28;20229;-83
2023/10/21 03:37:06;;;;;;;13.47;12.47;;;;;;;9.27;100.00;97615.53;5034753;28;20241;-82
2023/10/21 03:39:32;;;;;;;13.23;12.30;;;;;;;9.30;100.00;97618.78;5033975;28;20207;-82
2023/10/21 03:42:00;;;;;;;14.70;13.30;;;;;;;9.34;100.00;97616.84;5034417;28;20206;-82
2023/10/21 03:44:26;;;;;;;13.73;12.73;;;;;;;9.35;100.00;97615.91;5033386;28;20681;-82
2023/10/21 03:46:53;;;;;;;14.33;13.23;;;;;;;9.38;100.00;97617.50;5034013;28;20206;-82
2023/10/21 03:49:19;;;;;;;14.07;12.97;;;;;;;9.39;100.00;97611.34;5034886;28;20219;-81
2023/10/21 03:51:46;;;;;;;13.57;12.57;;;;;;;9.40;100.00;97618.25;5033918;28;20704;-83
2023/10/21 03:54:12;;;;;;;14.43;13.33;;;;;;;9.41;100.00;97617.31;5034178;28;20210;-81
2023/10/21 03:56:39;;;;;;;13.57;12.57;;;;;;;9.41;100.00;97625.94;5034043;28;20612;-82
2023/10/21 03:59:06;;;;;;;13.97;12.87;;;;;;;9.43;100.00;97621.47;5033492;28;20230;-81
2023/10/21 04:01:33;;;;;;;13.83;12.63;;;;;;;9.44;100.00;97623.16;5034328;28;20202;-83
2023/10/21 04:03:59;;;;;;;13.70;12.60;;;;;;;9.46;100.00;97623.09;5034061;28;20206;-83
2023/10/21 04:06:26;;;;;;;13.90;12.70;;;;;;;9.46;100.00;97610.06;5034067;28;20206;-82
2023/10/21 04:08:52;;;;;;;13.20;12.20;;;;;;;9.48;100.00;97614.25;5033943;28;20233;-82
2023/10/21 04:11:20;;;;;;;13.47;12.43;;;;;;;9.53;100.00;97599.19;5037765;28;20206;-82
2023/10/21 04:13:46;;;;;;;12.87;11.67;;;;;;;9.56;100.00;97607.75;5037157;28;20669;-82
2023/10/21 04:16:14;;;;;;;12.60;11.70;;;;;;;9.58;100.00;97605.88;5037877;28;20225;-83
2023/10/21 04:18:40;;;;;;;12.27;11.27;;;;;;;9.59;100.00;97599.72;5038071;28;20229;-83
2023/10/21 04:21:07;;;;;;;11.93;11.03;;;;;;;9.62;100.00;97599.56;5037777;28;20233;-83
2023/10/21 04:23:33;;;;;;;12.20;11.30;;;;;;;9.67;100.00;97600.09;5038566;28;20202;-82
2023/10/21 04:26:00;;;;;;;12.50;11.60;;;;;;;9.68;100.00;97599.19;5038336;28;20213;-83
2023/10/21 04:28:26;;;;;;;12.33;11.43;;;;;;;9.91;100.00;97622.06;5036926;28;20226;-83
2023/10/21 04:30:52;;;;;;;13.50;12.50;;;;;;;9.75;100.00;97626.50;5037462;28;20214;-82
2023/10/21 04:33:20;;;;;;;13.50;12.40;;;;;;;9.72;100.00;97626.72;5036539;28;20202;-83
2023/10/21 04:35:47;;;;;;;14.33;13.03;;;;;;;9.73;100.00;97629.22;5048143;28;20210;-82
2023/10/21 04:38:13;;;;;;;13.77;12.67;;;;;;;9.72;100.00;97629.31;5038550;28;20258;-82
2023/10/21 04:40:39;;;;;;;13.57;12.47;;;;;;;9.71;100.00;97632.84;5042484;28;20236;-82
2023/10/21 04:43:06;;;;;;;13.03;11.93;;;;;;;9.70;100.00;97629.41;5047386;28;20203;-83
2023/10/21 04:45:32;;;;;;;14.43;13.30;;;;;;;9.69;100.00;97640.78;5037299;28;20575;-82
2023/10/21 04:47:58;;;;;;;12.33;11.43;;;;;;;9.70;100.00;97644.19;5038107;28;20241;-83
2023/10/21 04:50:26;;;;;;;13.23;12.23;;;;;;;10.38;100.00;97666.97;5037373;28;20238;-84
2023/10/21 04:52:53;;;;;;;13.30;12.30;;;;;;;10.59;100.00;97711.72;5037609;28;20213;-83
2023/10/21 04:55:20;;;;;;;13.57;12.53;;;;;;;10.67;100.00;97742.56;5037246;28;20206;-83
2023/10/21 04:57:47;;;;;;;12.97;11.87;;;;;;;10.73;100.00;97773.47;5036479;28;20724;-82
2023/10/21 05:00:14;;;;;;;13.40;12.17;;;;;;;10.74;100.00;97796.00;5037027;28;20213;-82
2023/10/21 05:02:41;;;;;;;13.67;12.57;;;;;;;10.76;100.00;97804.59;5037798;28;20272;-81
2023/10/21 05:05:08;;;;;;;11.93;11.00;;;;;;;10.61;100.00;97814.22;5036839;28;20730;-83
2023/10/21 05:07:36;;;;;;;13.77;12.67;;;;;;;10.64;100.00;97810.56;5036292;28;20223;-82
2023/10/21 05:10:04;;;;;;;13.67;12.53;;;;;;;10.65;100.00;97814.88;5037236;28;20236;-83
2023/10/21 05:12:31;;;;;;;13.47;12.40;;;;;;;10.64;100.00;97808.78;5037593;28;20221;-83
2023/10/21 05:14:57;;;;;;;13.37;12.20;;;;;;;10.65;100.00;97825.31;5037399;28;20283;-83
2023/10/21 05:17:23;;;;;;;13.67;12.67;;;;;;;10.67;100.00;97829.47;5036289;28;20233;-80
2023/10/21 05:19:50;;;;;;;12.70;11.60;;;;;;;10.71;100.00;97822.31;5036229;28;20213;-81
2023/10/21 05:22:16;;;;;;;12.63;11.67;;;;;;;10.70;100.00;97829.31;5036260;28;20198;-83
2023/10/21 05:24:44;;;;;;;12.63;11.67;;;;;;;10.76;100.00;97837.66;5037252;28;20213;-83
2023/10/21 05:27:11;;;;;;;12.10;11.20;;;;;;;10.79;100.00;97845.31;5036439;28;20732;-83
2023/10/21 05:29:37;;;;;;;11.93;11.03;;;;;;;10.82;100.00;97852.94;5027702;28;20214;-82
2023/10/21 05:32:04;;;;;;;13.03;12.03;;;;;;;10.80;100.00;97860.88;5036536;28;20687;-82
2023/10/21 05:34:31;;;;;;;12.97;11.97;;;;;;;10.83;100.00;97865.91;5037160;28;20217;-82
2023/10/21 05:36:57;;;;;;;13.23;12.13;;;;;;;10.83;100.00;97873.75;5037269;28;20297;-83
2023/10/21 05:39:23;;;;;;;13.47;12.50;;;;;;;10.85;100.00;97878.88;5036761;28;20202;-82
2023/10/21 05:41:51;;;;;;;13.93;12.93;;;;;;;10.81;100.00;97878.22;5036100;28;20206;-83
2023/10/21 05:44:18;;;;;;;14.87;13.77;;;;;;;10.82;100.00;97884.25;5035901;28;20233;-82
2023/10/21 05:46:44;;;;;;;13.93;12.87;;;;;;;10.80;100.00;97880.91;5037240;28;20697;-81
2023/10/21 05:49:11;;;;;;;14.03;13.03;;;;;;;10.81;100.00;97873.00;5036381;28;20206;-82
2023/10/21 05:51:37;;;;;;;14.77;13.67;;;;;;;10.82;100.00;97874.69;5033741;28;20203;-82
2023/10/21 05:54:04;;;;;;;15.60;14.30;;;;;;;10.83;100.00;97871.13;5036681;28;20650;-82
2023/10/21 05:56:30;;;;;;;14.33;13.10;;;;;;;10.79;100.00;97877.47;5036384;28;20241;-82
2023/10/21 05:58:58;;;;;;;14.40;13.30;;;;;;;10.92;100.00;97887.97;5035479;28;20222;-81
2023/10/21 06:01:24;;;;;;;13.20;12.27;;;;;;;10.95;100.00;97894.81;5036527;28;20209;-82
2023/10/21 06:03:54;;;;;;;14.07;12.80;;;;;;;10.98;100.00;97900.69;5035963;28;20214;-83
2023/10/21 06:06:22;;;;;;;13.03;12.03;;;;;;;11.00;100.00;97914.47;5036644;28;20248;-81
2023/10/21 06:08:48;;;;;;;12.27;11.30;;;;;;;11.01;100.00;97920.53;5035861;28;20226;-82
2023/10/21 06:11:15;;;;;;;11.63;10.77;;;;;;;10.97;100.00;97938.13;5036664;28;20206;-81
2023/10/21 06:13:41;;;;;;;11.80;10.77;;;;;;;10.97;100.00;97939.91;5035801;28;20209;-82
2023/10/21 06:16:09;;;;;;;12.20;11.20;;;;;;;10.99;100.00;97945.88;5036338;28;20226;-82
2023/10/21 06:18:36;;;;;;;11.33;10.43;;;;;;;11.02;100.00;97959.59;5035835;28;20283;-82
2023/10/21 06:21:02;;;;;;;11.97;11.07;;;;;;;10.87;100.00;97955.28;5035368;28;20209;-82
2023/10/21 06:23:29;;;;;;;11.67;10.83;;;;;;;11.00;100.00;97950.16;5036091;28;20211;-83
2023/10/21 06:25:55;;;;;;;11.80;10.90;;;;;;;10.86;100.00;97944.03;5036549;28;20237;-82
2023/10/21 06:28:22;;;;;;;12.87;11.97;;;;;;;10.90;100.00;97945.50;5035502;28;20292;-81
2023/10/21 06:30:49;;;;;;;12.07;11.03;;;;;;;11.01;100.00;97944.03;5035932;28;20202;-82
2023/10/21 06:33:16;;;;;;;12.80;11.80;;;;;;;11.03;100.00;97949.97;5035101;28;20609;-82
2023/10/21 06:35:43;;;;;;;11.70;10.80;;;;;;;11.08;100.00;97954.00;5022282;28;20202;-81
2023/10/21 06:38:10;;;;;;;12.57;11.57;;;;;;;11.10;100.00;97957.34;5035320;28;20253;-79
2023/10/21 06:40:36;;;;;;;12.30;11.40;;;;;;;11.15;100.00;97959.66;5036289;28;20202;-82
2023/10/21 06:43:03;;;;;;;13.10;12.00;;;;;;;11.22;100.00;97971.44;5035471;28;20207;-83
2023/10/21 06:45:30;;;;;;;13.77;12.50;;;;;;;11.22;100.00;97957.50;5039599;28;20707;-82
2023/10/21 06:47:56;;;;;;;12.03;11.10;;;;;;;11.22;100.00;97968.81;5035460;28;20248;-81
2023/10/21 06:50:24;;;;;;;12.07;11.17;;;;;;;11.29;100.00;97972.72;5035569;28;20212;-82
2023/10/21 06:52:51;;;;;;;13.17;12.17;;;;;;;11.32;100.00;97988.22;5036048;28;20202;-83
2023/10/21 06:55:18;;;;;;;11.93;11.03;;;;;;;11.37;100.00;98007.97;5036265;28;20208;-83
2023/10/21 06:57:45;;;;;;;13.07;12.13;;;;;;;11.38;100.00;98002.66;5035025;28;20255;-82
2023/10/21 07:00:13;;;;;;;12.73;11.73;;;;;;;11.41;100.00;98006.84;5035864;28;20207;-82
2023/10/21 07:02:39;;;;;;;12.63;11.73;;;;;;;11.44;100.00;98020.56;5035777;28;20206;-82
2023/10/21 07:05:09;;;;;;;11.53;10.63;;;;;;;11.48;100.00;98021.22;5034876;28;20238;-82
2023/10/21 07:07:38;;;;;;;11.50;10.70;;;;;;;11.53;100.00;98030.47;5035843;28;20704;-83
2023/10/21 07:10:05;;;;;;;12.13;11.03;;;;;;;11.55;100.00;98029.50;5035723;28;20275;-82
2023/10/21 07:12:32;;;;;;;14.20;13.00;;;;;;;11.58;100.00;98029.34;5035893;28;20728;-83
2023/10/21 07:14:58;;;;;;;13.50;12.50;;;;;;;11.63;100.00;98027.25;5036019;28;20203;-83
2023/10/21 07:17:25;;;;;;;15.30;14.10;;;;;;;11.65;100.00;98028.84;5035960;28;20225;-83
2023/10/21 07:19:51;;;;;;;13.90;12.70;;;;;;;11.71;100.00;98030.22;5036085;28;20206;-82
2023/10/21 07:22:17;;;;;;;14.20;13.20;;;;;;;11.76;100.00;98033.41;5036258;28;20206;-83
2023/10/21 07:24:46;;;;;;;13.33;12.33;;;;;;;11.77;100.00;98040.28;5036444;28;20213;-83
2023/10/21 07:27:12;;;;;;;12.87;11.87;;;;;;;11.81;100.00;98040.94;5035869;28;20230;-81
2023/10/21 07:29:39;;;;;;;12.87;11.77;;;;;;;11.81;100.00;98043.56;5035184;28;20584;-83
2023/10/21 07:32:05;;;;;;;13.97;12.63;;;;;;;11.81;100.00;98049.63;5041191;28;20178;-83
2023/10/21 07:34:32;;;;;;;13.80;12.80;;;;;;;11.73;100.00;98046.66;5057337;28;20190;-81
2023/10/21 07:36:58;;;;;;;13.00;11.93;;;;;;;11.70;100.00;98046.88;5057636;28;20224;-83
2023/10/21 07:39:26;;;;;;;15.40;14.07;;;;;;;11.47;100.00;98020.38;5057657;28;20197;-81
2023/10/21 07:41:59;;;;;;;16.60;15.17;;;;;;;11.58;100.00;97990.97;5057970;28;20421;-79
2023/10/21 07:44:28;;;;;;;14.20;12.73;;;;;;;11.67;100.00;97994.78;5057504;28;20187;-79
2023/10/21 07:46:54;;;;;;;12.50;11.50;;;;;;;11.75;100.00;98010.81;5057006;28;20179;-81
2023/10/21 07:49:22;;;;;;;12.87;11.57;;;;;;;11.78;100.00;98022.88;5046260;28;20834;-80
2023/10/21 07:51:48;;;;;;;12.30;11.33;;;;;;;11.83;100.00;98032.09;5026735;28;20207;-79
2023/10/21 07:54:15;;;;;;;12.37;11.37;;;;;;;11.85;100.00;98042.44;5032995;28;20238;-82
2023/10/21 07:56:44;;;;;;;13.40;12.30;;;;;;;11.85;100.00;98055.50;5032480;28;20250;-84
2023/10/21 07:59:13;;;;;;;11.77;10.87;;;;;;;11.84;100.00;98056.47;5033652;28;20270;-82
2023/10/21 08:01:39;;;;;;;13.67;12.27;;;;;;;11.86;100.00;98065.03;5034375;28;20291;-83
2023/10/21 08:04:06;;;;;;;12.20;11.23;;;;;;;11.89;100.00;98068.34;5027908;28;20202;-82
2023/10/21 08:06:33;;;;;;;12.60;11.70;;;;;;;11.86;100.00;98065.03;5032956;28;20202;-82
2023/10/21 08:09:00;;;;;;;10.30;9.50;;;;;;;11.89;100.00;98036.97;5033130;28;20249;-83
2023/10/21 08:11:27;;;;;;;8.60;8.00;;;;;;;11.95;100.00;98012.19;5031301;28;20202;-83
2023/10/21 08:13:54;;;;;;;6.90;6.30;;;;;;;12.05;100.00;98004.59;5032974;28;20198;-83
2023/10/21 08:16:22;;;;;;;5.73;5.33;;;;;;;12.19;100.00;98001.09;5032874;28;20644;-84
2023/10/21 08:18:50;;;;;;;6.67;5.33;;;;;;;12.30;100.00;97996.00;5032141;28;20229;-83
2023/10/21 08:21:18;;;;;;;4.87;4.47;;;;;;;12.46;100.00;97975.75;5035224;28;20206;-82
2023/10/21 08:23:44;;;;;;;3.63;3.43;;;;;;;12.62;100.00;97972.94;5033509;28;20202;-83
2023/10/21 08:26:11;;;;;;;3.13;2.67;;;;;;;12.77;100.00;97985.97;5034158;28;20212;-82
2023/10/21 08:28:37;;;;;;;2.63;2.43;;;;;;;12.88;100.00;97979.06;5033071;28;20230;-82
2023/10/21 08:31:08;;;;;;;3.20;3.00;;;;;;;12.96;100.00;97996.84;5034467;28;20226;-83
2023/10/21 08:33:35;;;;;;;2.60;2.50;;;;;;;13.00;100.00;98011.44;5027631;28;20572;-82
2023/10/21 08:36:02;;;;;;;2.10;2.00;;;;;;;13.12;100.00;98012.34;5031506;28;20680;-82
2023/10/21 08:38:29;;;;;;;1.70;1.60;;;;;;;13.15;100.00;98027.03;5033243;28;20257;-82
2023/10/21 08:40:55;;;;;;;2.07;1.97;;;;;;;13.19;100.00;98031.13;5033998;28;20574;-83
2023/10/21 08:43:22;;;;;;;1.70;1.60;;;;;;;13.26;100.00;98037.59;5033168;28;20289;-82
2023/10/21 08:45:49;;;;;;;1.50;1.40;;;;;;;13.41;100.00;98047.06;5033756;28;20206;-81
2023/10/21 08:48:17;;;;;;;1.53;1.43;;;;;;;13.51;100.00;98060.38;5034059;28;20222;-79
2023/10/21 08:50:49;;;;;;;6.10;5.60;;;;;;;13.55;100.00;98071.50;5033238;28;20240;-81
2023/10/21 08:53:15;;;;;;;2.27;2.07;;;;;;;13.59;100.00;98084.25;5032905;28;20202;-81
2023/10/21 08:55:42;;;;;;;1.40;1.30;;;;;;;13.71;100.00;98095.69;5033553;28;20206;-82
2023/10/21 08:58:09;;;;;;;1.57;0.97;;;;;;;13.74;100.00;98108.59;5036277;28;20226;-83
2023/10/21 09:00:38;;;;;;;1.03;1.03;;;;;;;13.87;100.00;98112.03;5038271;28;20732;-83
2023/10/21 09:03:05;;;;;;;2.57;1.00;;;;;;;13.95;100.00;98129.00;5037214;28;20248;-83
2023/10/21 09:05:31;;;;;;;1.30;1.20;;;;;;;14.03;100.00;98118.81;5037364;28;20210;-82
2023/10/21 09:07:59;;;;;;;2.03;1.10;;;;;;;14.03;100.00;98138.03;5037165;28;20227;-83
2023/10/21 09:10:25;;;;;;;1.47;1.30;;;;;;;14.16;100.00;98148.50;5037286;28;20238;-82
2023/10/21 09:12:52;;;;;;;1.40;1.30;;;;;;;14.22;100.00;98163.81;5037432;28;20213;-81
2023/10/21 09:15:21;;;;;;;2.07;1.00;;;;;;;14.28;100.00;98183.53;5037391;28;20211;-82
2023/10/21 09:17:52;;;;;;;1.00;1.00;;;;;;;14.32;100.00;98192.03;5036831;28;20327;-79
2023/10/21 09:20:19;;;;;;;1.20;1.10;;;;;;;14.20;100.00;98212.94;5037628;28;20197;-83
2023/10/21 09:22:49;;;;;;;1.27;1.27;;;;;;;14.31;100.00;98212.19;5037925;28;20211;-83
2023/10/21 09:25:19;;;;;;;1.90;1.80;;;;;;;14.37;100.00;98227.50;5038674;28;20200;-79
2023/10/21 09:27:49;;;;;;;1.83;1.60;;;;;;;14.41;100.00;98233.34;5037725;28;20309;-84
2023/10/21 09:30:17;;;;;;;1.27;1.23;;;;;;;14.53;100.00;98242.16;5037844;28;20550;-82
2023/10/21 09:32:44;;;;;;;1.53;1.27;;;;;;;14.64;100.00;98247.53;5037399;28;20218;-81
2023/10/21 09:35:15;;;;;;;1.47;1.37;;;;;;;14.68;100.00;98249.81;5036932;28;20202;-82
2023/10/21 09:37:42;;;;;;;1.40;1.27;;;;;;;14.72;100.00;98258.31;5037373;28;20240;-82
2023/10/21 09:40:09;;;;;;;2.03;0.97;;;;;;;14.73;100.00;98264.41;5037270;28;20657;-83
2023/10/21 09:42:39;;;;;;;1.80;1.00;;;;;;;14.84;100.00;98278.44;5035000;28;20723;-83
2023/10/21 09:45:08;;;;;;;1.30;1.23;;;;;;;14.87;100.00;98280.88;5035627;28;20250;-83
2023/10/21 09:47:38;;;;;;;2.00;0.93;;;;;;;14.88;100.00;98287.81;5036233;28;20222;-85
2023/10/21 09:50:09;;;;;;;1.03;0.87;;;;;;;14.91;100.00;98299.06;5037623;28;21693;-84
2023/10/21 09:52:41;;;;;;;1.70;0.90;;;;;;;14.94;100.00;98301.44;5035448;28;20286;-84
2023/10/21 09:55:11;;;;;;;1.73;1.40;;;;;;;15.00;100.00;98307.09;5037799;28;20210;-84
2023/10/21 09:57:41;;;;;;;0.80;0.80;;;;;;;15.04;100.00;98316.47;5038360;28;20242;-84
2023/10/21 10:00:17;;;;;;;1.23;0.80;;;;;;;15.16;100.00;98327.84;5037709;28;20553;-85
2023/10/21 10:02:47;;;;;;;0.90;0.90;;;;;;;15.15;100.00;98323.56;5036366;28;20215;-86
2023/10/21 10:05:14;;;;;;;1.17;0.80;;;;;;;15.23;100.00;98328.28;5036775;28;20613;-85
2023/10/21 10:07:42;;;;;;;0.70;0.67;;;;;;;15.30;100.00;98353.16;5036601;28;20223;-84
2023/10/21 10:10:11;;;;;;;1.03;0.73;;;;;;;15.27;100.00;98370.00;5038342;28;20212;-84
2023/10/21 10:12:45;;;;;;;0.70;0.70;;;;;;;15.19;100.00;98385.47;5037001;28;20279;-84
2023/10/21 10:15:29;;;;;;;0.70;0.60;;;;;;;15.09;100.00;98395.78;5038357;28;20253;-87
2023/10/21 10:17:56;;;;;;;0.73;0.50;;;;;;;15.28;100.00;98394.47;5038466;28;20237;-81
2023/10/21 10:20:24;;;;;;;2.10;0.80;;;;;;;15.39;100.00;98396.34;5038978;28;20200;-85
2023/10/21 10:22:58;;;;;;;1.43;0.80;;;;;;;15.42;100.00;98404.88;5037314;28;20209;-83
2023/10/21 10:25:26;;;;;;;0.90;0.67;;;;;;;15.39;100.00;98425.28;5039897;28;20204;-82
2023/10/21 10:27:59;;;;;;;1.10;0.73;;;;;;;15.42;100.00;98439.06;5042906;28;20235;-83
2023/10/21 10:30:31;;;;;;;0.53;0.53;;;;;;;15.44;100.00;98457.31;5040040;28;20204;-84
2023/10/21 10:33:01;;;;;;;1.90;1.27;;;;;;;15.28;100.00;98463.69;5036225;28;20283;-86
2023/10/21 10:35:31;;;;;;;0.40;0.40;;;;;;;15.27;100.00;98476.94;5038027;28;20207;-83
2023/10/21 10:37:59;;;;;;;0.40;0.40;;;;;;;15.41;100.00;98470.69;5047116;28;20248;-82
2023/10/21 10:40:38;;;;;;;0.97;0.50;;;;;;;15.55;100.00;98464.47;5051052;28;20215;-86
2023/10/21 10:43:10;;;;;;;2.00;0.73;;;;;;;15.68;100.00;98460.00;5039951;28;20267;-84
2023/10/21 10:45:37;;;;;;;0.47;0.47;;;;;;;15.74;100.00;98459.59;5048064;28;20299;-85
2023/10/21 10:48:08;;;;;;;0.90;0.60;;;;;;;15.81;100.00;98457.34;5040676;28;20704;-85
2023/10/21 10:50:36;;;;;;;1.17;0.53;;;;;;;15.84;100.00;98465.03;5035597;28;20735;-84
2023/10/21 10:53:12;;;;;;;1.60;0.40;;;;;;;15.88;100.00;98477.03;5036157;28;20213;-87
2023/10/21 10:55:49;;;;;;;0.90;0.70;;;;;;;15.83;100.00;98490.50;5038202;28;20212;-86
2023/10/21 10:58:19;;;;;;;0.60;0.50;;;;;;;15.81;100.00;98502.91;5036045;28;20311;-86
2023/10/21 11:00:46;;;;;;;0.80;0.60;;;;;;;15.91;100.00;98504.91;5036490;28;20631;-85
2023/10/21 11:03:23;;;;;;;0.97;0.40;;;;;;;15.86;100.00;98499.97;5036248;28;20811;-85
2023/10/21 11:05:50;;;;;;;1.80;0.50;;;;;;;15.80;100.00;98532.00;5035530;28;20212;-85
2023/10/21 11:08:21;;;;;;;0.50;0.50;;;;;;;15.98;100.00;98551.72;5035610;28;20700;-83
2023/10/21 11:10:48;;;;;;;0.77;0.40;;;;;;;15.91;100.00;98579.41;5036052;28;20216;-84
2023/10/21 11:13:14;;;;;;;1.13;0.40;;;;;;;15.94;100.00;98587.09;5035706;28;20218;-86
2023/10/21 11:15:44;;;;;;;0.63;0.63;;;;;;;16.10;100.00;98588.66;5037112;28;20214;-84
2023/10/21 11:18:11;;;;;;;0.70;0.70;;;;;;;16.20;100.00;98593.13;5036798;28;20238;-84